Time;durP1;ratioP1;P1;durP2;ratioP2;P2;SDS_P1;SDS_P2;PMS_P1;PMS_P2;Temp;Humidity;BMP_temperature;BMP_pressure;BME280_temperature;BME280_humidity;BME280_pressure;Samples;Min_cycle;Max_cycle;Signal;HPM_P1;HPM_P2
2021/10/11 00:02:02;;;;;;;28.03;8.83;;;0.30;99.90;;;0.48;100.00;95873.00;2489790;55;26190;-56
2021/10/11 00:04:48;;;;;;;96.77;11.87;;;0.10;99.90;;;0.32;100.00;95878.00;2261422;56;26700;-55
2021/10/11 00:07:36;;;;;;;63.57;10.17;;;0.10;99.90;;;0.48;100.00;95880.00;2261037;56;26952;-56
2021/10/11 00:10:24;;;;;;;25.00;10.07;;;0.10;99.90;;;0.34;100.00;95877.00;2489599;55;26231;-55
2021/10/11 00:13:10;;;;;;;83.83;11.57;;;0.00;99.90;;;0.20;100.00;95877.00;2261846;56;26109;-55
2021/10/11 00:15:56;;;;;;;44.10;10.10;;;-0.10;99.90;;;0.09;100.00;95886.00;2490066;55;25886;-55
2021/10/11 00:18:43;;;;;;;24.07;8.60;;;-0.10;99.90;;;0.04;100.00;95892.00;2262256;56;26118;-55
2021/10/11 00:21:29;;;;;;;30.70;9.07;;;-0.10;99.90;;;0.07;100.00;95884.00;2490245;55;26060;-56
2021/10/11 00:24:16;;;;;;;67.17;10.97;;;-0.10;99.90;;;0.33;100.00;95884.00;2260953;56;26756;-55
2021/10/11 00:27:02;;;;;;;57.00;11.70;;;-0.10;99.90;;;0.22;100.00;95889.00;2489956;55;25126;-54
2021/10/11 00:29:49;;;;;;;61.13;11.57;;;-0.20;99.90;;;0.01;100.00;95880.00;2262219;56;25044;-55
2021/10/11 00:32:35;;;;;;;73.97;13.40;;;-0.40;99.90;;;-0.25;100.00;95890.00;2488834;55;26194;-55
2021/10/11 00:35:22;;;;;;;77.07;12.10;;;-0.50;99.90;;;-0.32;100.00;95888.00;2260402;56;26166;-55
2021/10/11 00:38:08;;;;;;;64.30;11.13;;;-0.50;99.90;;;-0.25;100.00;95884.00;2260551;56;26158;-55
2021/10/11 00:40:55;;;;;;;53.13;11.23;;;-0.50;99.90;;;-0.27;100.00;95875.00;2260233;56;26612;-57
2021/10/11 00:43:42;;;;;;;36.47;9.80;;;-0.60;99.90;;;-0.39;100.00;95873.00;2260339;56;26238;-56
2021/10/11 00:46:28;;;;;;;59.43;10.47;;;-0.60;99.90;;;-0.39;100.00;95871.00;2260308;56;26660;-54
2021/10/11 00:52:13;;;;;;;101.07;13.30;;;-0.60;99.90;;;-0.31;100.00;95861.00;2231579;55;33844;-56
2021/10/11 00:54:59;;;;;;;32.27;9.30;;;-0.60;99.90;;;-0.46;100.00;95873.00;2220581;56;26697;-56
2021/10/11 00:57:46;;;;;;;10.10;8.73;;;-0.70;99.90;;;-0.41;100.00;95871.00;2213517;56;26302;-55
2021/10/11 01:00:32;;;;;;;49.60;10.20;;;-0.50;99.90;;;0.03;100.00;95873.00;2219362;55;26157;-55
2021/10/11 01:03:19;;;;;;;11.93;9.40;;;-0.30;99.90;;;0.13;100.00;95879.00;2233514;56;26186;-56
2021/10/11 01:06:06;;;;;;;59.23;10.83;;;-0.30;99.90;;;0.20;100.00;95863.00;2235122;56;26598;-55
2021/10/11 01:08:52;;;;;;;58.50;11.67;;;-0.30;99.90;;;0.07;100.00;95857.00;2235015;56;26141;-56
2021/10/11 01:11:40;;;;;;;44.27;10.77;;;-0.40;99.90;;;-0.18;100.00;95857.00;2235122;56;26248;-55
2021/10/11 01:14:28;;;;;;;28.90;10.37;;;-0.50;99.90;;;-0.31;100.00;95861.00;2236997;56;26121;-56
2021/10/11 01:17:15;;;;;;;32.80;10.90;;;-0.50;99.90;;;-0.15;100.00;95854.00;2459567;55;26133;-58
2021/10/11 01:20:02;;;;;;;64.60;11.57;;;-0.40;99.90;;;-0.02;100.00;95849.00;2236869;56;26116;-55
2021/10/11 01:22:48;;;;;;;18.00;9.83;;;-0.40;99.90;;;-0.01;100.00;95859.00;2460082;55;26185;-55
2021/10/11 01:25:35;;;;;;;30.50;10.73;;;-0.50;99.90;;;-0.10;100.00;95859.00;2236590;56;26680;-55
2021/10/11 01:28:21;;;;;;;55.67;11.60;;;-0.40;99.90;;;-0.15;100.00;95856.00;2459597;55;26160;-54
2021/10/11 01:34:07;;;;;;;39.03;10.73;;;-0.50;99.90;;;-0.03;100.00;95848.00;2267881;56;32700;-55
2021/10/11 01:36:53;;;;;;;41.30;10.53;;;-0.50;99.90;;;-0.24;100.00;95857.00;2505292;54;26687;-55
2021/10/11 01:39:40;;;;;;;34.43;10.67;;;-0.60;99.90;;;-0.39;100.00;95859.00;2278856;56;26114;-55
2021/10/11 01:42:26;;;;;;;54.17;10.73;;;-0.60;99.90;;;-0.44;100.00;95857.00;2285676;55;26199;-55
2021/10/11 01:45:14;;;;;;;47.23;10.03;;;-0.60;99.90;;;-0.39;100.00;95859.00;2268556;55;25215;-54
2021/10/11 01:48:01;;;;;;;43.80;10.27;;;-0.70;99.90;;;-0.53;100.00;95860.00;2257482;56;26130;-55
2021/10/11 01:50:48;;;;;;;45.87;10.20;;;-0.80;99.90;;;-0.66;100.00;95865.00;2256064;56;26153;-54
2021/10/11 01:53:34;;;;;;;29.57;9.70;;;-0.90;99.90;;;-0.56;100.00;95861.00;2255901;56;26186;-55
2021/10/11 01:56:21;;;;;;;12.83;8.37;;;-0.90;99.90;;;-0.76;100.00;95857.00;2257678;54;26182;-55
2021/10/11 01:59:07;;;;;;;37.87;10.23;;;-0.90;99.90;;;-0.59;100.00;95862.00;2261042;56;26568;-55
2021/10/11 02:01:53;;;;;;;21.83;9.10;;;-0.80;99.90;;;-0.40;100.00;95856.00;2489751;55;26135;-55
2021/10/11 02:04:40;;;;;;;31.07;9.97;;;-0.70;99.90;;;-0.38;100.00;95852.00;2241551;55;26133;-59
2021/10/11 02:07:26;;;;;;;27.93;10.13;;;-0.70;99.90;;;-0.39;100.00;95851.00;2247915;56;26634;-55
2021/10/11 02:10:13;;;;;;;31.73;10.20;;;-0.70;99.90;;;-0.53;100.00;95853.00;2485034;55;26214;-55
2021/10/11 02:13:00;;;;;;;31.07;9.77;;;-0.70;99.90;;;-0.56;100.00;95851.00;2265450;56;26197;-55
2021/10/11 02:15:46;;;;;;;35.70;10.37;;;-0.70;99.90;;;-0.43;100.00;95841.00;2494117;55;26193;-55
2021/10/11 02:18:32;;;;;;;48.40;10.07;;;-0.70;99.90;;;-0.48;100.00;95846.00;2265772;55;26138;-55
2021/10/11 02:21:18;;;;;;;12.93;9.27;;;-0.90;99.90;;;-0.71;100.00;95852.00;2494669;55;26578;-55
2021/10/11 02:24:05;;;;;;;18.70;10.27;;;-0.90;99.90;;;-0.79;100.00;95844.00;2265754;55;26140;-55
2021/10/11 02:26:51;;;;;;;18.90;10.07;;;-0.90;99.90;;;-0.57;100.00;95844.00;2493978;55;26556;-55
2021/10/11 02:29:38;;;;;;;20.07;10.10;;;-0.90;99.90;;;-0.63;100.00;95858.00;2494991;55;25597;-55
2021/10/11 02:32:24;;;;;;;10.30;8.77;;;-0.90;99.90;;;-0.61;100.00;95838.00;2265452;55;26146;-55
2021/10/11 02:35:11;;;;;;;34.27;11.23;;;-0.90;99.90;;;-0.54;100.00;95851.00;2494473;55;26736;-56
2021/10/11 02:37:57;;;;;;;23.23;9.77;;;-0.80;99.90;;;-0.38;100.00;95847.00;2265701;55;26106;-57
2021/10/11 02:40:44;;;;;;;19.53;10.03;;;-0.70;99.90;;;-0.37;100.00;95851.00;2263714;55;26225;-55
2021/10/11 02:46:26;;;;;;;14.43;10.43;;;-0.70;99.90;;;-0.32;100.00;95839.00;2212384;55;33904;-54
2021/10/11 02:49:13;;;;;;;24.90;10.53;;;-0.60;99.90;;;-0.36;100.00;95847.00;2184631;55;26183;-56
2021/10/11 02:51:59;;;;;;;12.97;9.70;;;-0.60;99.90;;;-0.39;100.00;95850.00;2195305;57;26248;-54
2021/10/11 02:57:44;;;;;;;37.83;10.67;;;-0.60;99.90;;;-0.29;100.00;95838.00;2248888;54;33216;-55
2021/10/11 03:00:30;;;;;;;22.90;9.10;;;-0.70;99.90;;;-0.44;100.00;95855.00;2218318;55;26182;-55
2021/10/11 03:03:17;;;;;;;11.87;9.70;;;-0.70;99.90;;;-0.52;100.00;95858.00;2243006;55;26198;-54
2021/10/11 03:09:01;;;;;;;17.17;9.73;;;-0.70;99.90;;;-0.26;100.00;95844.00;2212220;56;32539;-55
2021/10/11 03:11:49;;;;;;;15.33;8.87;;;-0.70;99.90;;;-0.51;100.00;95859.00;2195044;57;26204;-54
2021/10/11 03:14:35;;;;;;;10.60;8.80;;;-0.70;99.90;;;-0.48;100.00;95866.00;2196386;58;26308;-55
2021/10/11 03:17:22;;;;;;;12.20;8.60;;;-0.80;99.90;;;-0.53;100.00;95858.00;2205192;55;26284;-55
2021/10/11 03:20:11;;;;;;;22.73;9.17;;;-0.70;99.90;;;-0.25;100.00;95865.00;2207425;57;26203;-55
2021/10/11 03:22:57;;;;;;;11.83;8.83;;;-0.60;99.90;;;-0.29;100.00;95864.00;2184734;57;26189;-54
2021/10/11 03:25:44;;;;;;;23.97;9.63;;;-0.70;99.90;;;-0.29;100.00;95856.00;2183871;58;26730;-55
2021/10/11 03:28:31;;;;;;;32.60;9.93;;;-0.60;99.90;;;-0.17;100.00;95861.00;2184689;57;26212;-54
2021/10/11 03:31:17;;;;;;;32.73;10.23;;;-0.50;99.90;;;-0.25;100.00;95858.00;2186015;58;26151;-55
2021/10/11 03:34:05;;;;;;;49.43;10.60;;;-0.60;99.90;;;-0.34;100.00;95871.00;2408775;57;26737;-55
2021/10/11 03:36:51;;;;;;;38.33;10.50;;;-0.60;99.90;;;-0.42;100.00;95869.00;2194915;58;26231;-55
2021/10/11 03:39:37;;;;;;;13.33;9.43;;;-0.70;99.90;;;-0.48;100.00;95869.00;2424004;57;26658;-55
2021/10/11 03:42:24;;;;;;;19.43;10.07;;;-0.70;99.90;;;-0.39;100.00;95868.00;2207938;58;26071;-55
2021/10/11 03:45:11;;;;;;;39.80;11.03;;;-0.60;99.90;;;-0.38;100.00;95873.00;2423384;57;26197;-54
2021/10/11 03:47:57;;;;;;;99.77;13.73;;;-0.60;99.90;;;-0.29;100.00;95878.00;2206790;58;26128;-54
2021/10/11 03:50:45;;;;;;;105.23;14.87;;;-0.60;99.90;;;-0.34;100.00;95887.00;2423694;57;26080;-55
2021/10/11 03:53:32;;;;;;;100.57;14.10;;;-0.60;99.90;;;-0.40;100.00;95883.00;2207131;58;26124;-55
2021/10/11 03:56:18;;;;;;;95.90;14.73;;;-0.70;99.90;;;-0.46;100.00;95886.00;2422870;57;26182;-55
2021/10/11 03:59:05;;;;;;;36.33;11.87;;;-0.70;99.90;;;-0.60;100.00;95878.00;2205805;58;25096;-56
2021/10/11 04:01:51;;;;;;;145.90;13.63;;;-0.80;99.90;;;-0.57;100.00;95885.00;2201614;58;26276;-55
2021/10/11 04:04:38;;;;;;;25.73;10.10;;;-0.70;99.90;;;-0.40;100.00;95888.00;2166075;58;26164;-55
2021/10/11 04:07:25;;;;;;;86.00;11.97;;;-0.70;99.90;;;-0.39;100.00;95878.00;2160636;58;26156;-55
2021/10/11 04:10:12;;;;;;;58.47;12.40;;;-0.70;99.90;;;-0.39;100.00;95883.00;2392301;57;26195;-55
2021/10/11 04:13:02;;;;;;;35.90;11.83;;;-0.80;99.90;;;-0.71;100.00;95883.00;2186962;57;26102;-56
2021/10/11 04:15:48;;;;;;;15.53;9.70;;;-0.90;99.90;;;-0.67;100.00;95882.00;2370997;57;26150;-55
2021/10/11 04:18:35;;;;;;;20.37;10.43;;;-1.00;99.90;;;-0.87;100.00;95880.00;2163193;58;26153;-55
2021/10/11 04:21:22;;;;;;;35.70;11.27;;;-1.10;99.90;;;-0.86;100.00;95877.00;2370252;57;26628;-55
2021/10/11 04:24:08;;;;;;;17.47;10.20;;;-1.10;99.90;;;-0.92;100.00;95885.00;2162156;58;26232;-55
2021/10/11 04:26:54;;;;;;;12.47;9.77;;;-1.20;99.90;;;-1.15;100.00;95878.00;2160500;58;26242;-55
2021/10/11 04:29:44;;;;;;;13.10;9.47;;;-1.30;99.90;;;-1.20;100.00;95878.00;2161317;58;26257;-55
2021/10/11 04:32:30;;;;;;;12.97;9.97;;;-1.30;99.90;;;-1.21;100.00;95880.00;2160953;58;26197;-55
2021/10/11 04:35:18;;;;;;;20.23;10.90;;;-1.30;99.90;;;-1.11;100.00;95894.00;2189073;58;26148;-54
2021/10/11 04:38:04;;;;;;;41.63;11.10;;;-1.20;99.90;;;-1.02;100.00;95884.00;2403821;57;26674;-55
2021/10/11 04:40:51;;;;;;;25.03;10.83;;;-1.10;99.90;;;-0.82;100.00;95888.00;2403317;57;26166;-55
2021/10/11 04:43:37;;;;;;;24.03;11.43;;;-1.00;99.90;;;-0.79;100.00;95896.00;2190323;58;26808;-55
2021/10/11 04:46:24;;;;;;;18.73;11.00;;;-0.90;99.90;;;-0.65;100.00;95899.00;2403456;57;26242;-56
2021/10/11 04:49:10;;;;;;;17.23;10.17;;;-0.90;99.90;;;-0.64;100.00;95895.00;2189129;58;26267;-55
2021/10/11 04:51:56;;;;;;;17.10;10.93;;;-0.90;99.90;;;-0.53;100.00;95914.00;2403734;57;26139;-55
2021/10/11 04:54:43;;;;;;;59.43;12.47;;;-0.80;99.90;;;-0.35;100.00;95919.00;2188964;58;26220;-56
2021/10/11 04:57:29;;;;;;;93.47;13.47;;;-0.80;99.90;;;-0.49;100.00;95921.00;2188854;58;25137;-55
2021/10/11 05:00:19;;;;;;;74.90;12.37;;;-0.90;99.90;;;-0.67;100.00;95906.00;2208101;58;26162;-55
2021/10/11 05:03:06;;;;;;;22.27;10.87;;;-0.90;99.90;;;-0.80;100.00;95905.00;2433279;57;26679;-55
2021/10/11 05:05:52;;;;;;;32.70;11.30;;;-1.00;99.90;;;-0.85;100.00;95906.00;2214904;58;26131;-55
2021/10/11 05:08:38;;;;;;;72.97;12.63;;;-1.00;99.90;;;-0.78;100.00;95903.00;2215032;58;26147;-55
2021/10/11 05:11:25;;;;;;;26.60;10.27;;;-1.00;99.90;;;-0.84;100.00;95898.00;2433200;57;26659;-55
2021/10/11 05:14:11;;;;;;;31.73;10.77;;;-1.00;99.90;;;-0.79;100.00;95895.00;2214548;58;27267;-55
2021/10/11 05:16:58;;;;;;;82.13;12.20;;;-0.90;99.90;;;-0.64;100.00;95898.00;2213336;58;26236;-56
2021/10/11 05:19:45;;;;;;;68.83;11.30;;;-0.90;99.90;;;-0.71;100.00;95896.00;2213941;58;26250;-55
2021/10/11 05:22:31;;;;;;;32.93;11.83;;;-1.00;99.90;;;-0.63;100.00;95902.00;2213819;58;26270;-55
2021/10/11 05:25:18;;;;;;;24.73;10.10;;;-1.00;99.90;;;-0.74;100.00;95897.00;2212848;58;26199;-56
2021/10/11 05:28:06;;;;;;;21.30;10.07;;;-1.00;99.90;;;-0.84;100.00;95887.00;2214396;58;25616;-54
2021/10/11 05:30:54;;;;;;;29.47;10.50;;;-1.10;99.90;;;-0.95;100.00;95890.00;2213456;58;26279;-54
2021/10/11 05:33:40;;;;;;;19.73;9.90;;;-1.00;99.90;;;-0.68;100.00;95890.00;2213855;58;26227;-54
2021/10/11 05:36:28;;;;;;;21.53;9.93;;;-1.10;99.90;;;-0.86;100.00;95902.00;2213525;58;26231;-54
2021/10/11 05:39:14;;;;;;;26.27;10.50;;;-1.10;99.90;;;-0.96;100.00;95904.00;2212991;58;26726;-54
2021/10/11 05:42:01;;;;;;;41.30;10.87;;;-1.10;99.90;;;-0.83;100.00;95913.00;2213415;58;26286;-55
2021/10/11 05:44:47;;;;;;;64.93;11.87;;;-1.10;99.90;;;-0.87;100.00;95908.00;2215128;57;26548;-55
2021/10/11 05:47:34;;;;;;;56.47;10.73;;;-1.20;99.90;;;-0.88;100.00;95914.00;2432669;57;26291;-54
2021/10/11 05:53:17;;;;;;;22.00;10.43;;;-1.00;99.90;;;-0.61;100.00;95899.00;2277617;54;33230;-56
2021/10/11 05:56:04;;;;;;;51.60;11.23;;;-0.90;99.90;;;-0.65;100.00;95914.00;2299737;55;26195;-56
2021/10/11 05:58:50;;;;;;;27.60;10.43;;;-1.00;99.90;;;-0.74;100.00;95920.00;2516118;55;26629;-56
2021/10/11 06:01:37;;;;;;;45.53;10.77;;;-0.90;99.90;;;-0.67;100.00;95923.00;2283012;55;26628;-55
2021/10/11 06:04:23;;;;;;;13.47;10.03;;;-0.90;99.90;;;-0.60;100.00;95919.00;2517505;54;26594;-56
2021/10/11 06:07:10;;;;;;;13.93;9.80;;;-0.80;99.90;;;-0.43;100.00;95921.00;2288026;55;26064;-54
2021/10/11 06:09:56;;;;;;;15.87;9.90;;;-0.60;99.90;;;-0.08;100.00;95925.00;2287757;55;26096;-56
2021/10/11 06:12:43;;;;;;;14.37;9.63;;;-0.50;99.90;;;0.02;100.00;95928.00;2521476;54;26136;-56
2021/10/11 06:15:29;;;;;;;28.70;9.97;;;-0.50;99.90;;;-0.04;100.00;95918.00;2287938;55;26223;-56
2021/10/11 06:18:16;;;;;;;31.53;10.90;;;-0.60;99.90;;;-0.16;100.00;95917.00;2521798;54;26212;-55
2021/10/11 06:21:02;;;;;;;37.53;11.73;;;-0.40;99.90;;;-0.01;100.00;95927.00;2287749;55;26080;-56
2021/10/11 06:23:51;;;;;;;20.93;9.30;;;-0.40;99.90;;;0.01;100.00;95919.00;2521128;54;26120;-56
2021/10/11 06:29:35;;;;;;;31.53;9.30;;;-0.20;99.90;;;0.32;100.00;95888.00;2191222;58;33529;-55
2021/10/11 06:32:22;;;;;;;34.83;9.40;;;-0.30;99.90;;;0.06;100.00;95901.00;2175179;58;26221;-54
2021/10/11 06:35:10;;;;;;;41.07;10.00;;;-0.30;99.90;;;0.16;100.00;95895.00;2159928;58;26255;-54
2021/10/11 06:37:56;;;;;;;20.73;8.67;;;-0.20;99.90;;;0.16;100.00;95895.00;2161980;58;26586;-55
2021/10/11 06:40:46;;;;;;;13.43;8.33;;;-0.10;99.90;;;0.34;100.00;95888.00;2369313;58;26146;-55
2021/10/11 06:43:32;;;;;;;14.37;8.73;;;0.00;99.90;;;0.53;100.00;95884.00;2161796;58;26214;-56
2021/10/11 06:46:18;;;;;;;10.53;8.70;;;0.20;99.90;;;0.78;100.00;95878.00;2369019;58;26152;-55
2021/10/11 06:52:03;;;;;;;17.57;9.17;;;0.10;99.90;;;0.50;100.00;95876.00;2252432;55;33345;-54
2021/10/11 06:54:49;;;;;;;13.47;8.13;;;0.10;99.90;;;0.62;100.00;95893.00;2256367;56;26196;-55
2021/10/11 06:57:36;;;;;;;12.73;9.80;;;0.20;99.90;;;0.88;100.00;95890.00;2486110;54;26749;-55
2021/10/11 07:00:23;;;;;;;12.03;8.77;;;0.40;99.90;;;0.94;100.00;95894.00;2235636;55;26224;-55
2021/10/11 07:03:09;;;;;;;12.17;8.40;;;0.60;99.90;;;1.39;100.00;95899.00;2456338;55;26664;-55
2021/10/11 07:06:00;;;;;;;8.87;7.40;;;0.90;99.90;;;2.10;100.00;95898.00;2226041;56;26568;-55
2021/10/11 07:08:46;;;;;;;8.67;6.43;;;1.60;99.90;;;3.01;100.00;95884.00;2459910;55;26735;-57
2021/10/11 07:11:33;;;;;;;9.20;7.33;;;2.20;99.90;;;3.62;100.00;95876.00;2253767;55;26731;-55
2021/10/11 07:14:19;;;;;;;8.37;6.50;;;2.80;99.90;;;4.15;100.00;95867.00;2249202;55;26280;-55
2021/10/11 07:17:06;;;;;;;9.43;6.20;;;3.10;99.90;;;4.25;100.00;95857.00;2250262;55;26176;-55
2021/10/11 07:19:52;;;;;;;7.80;6.50;;;3.40;99.90;;;4.88;100.00;95852.00;2250287;55;26315;-55
2021/10/11 07:22:39;;;;;;;7.97;6.37;;;3.30;99.90;;;4.40;100.00;95848.00;2251047;55;26134;-55
2021/10/11 07:25:26;;;;;;;6.87;6.17;;;3.20;99.90;;;4.38;100.00;95838.00;2249655;55;26229;-55
2021/10/11 07:28:12;;;;;;;7.17;5.77;;;3.30;99.90;;;4.90;100.00;95845.00;2252447;55;27044;-57
2021/10/11 07:30:59;;;;;;;8.57;6.80;;;3.70;99.90;;;5.21;100.00;95849.00;2249071;55;26220;-55
2021/10/11 07:33:45;;;;;;;8.90;6.70;;;3.80;99.90;;;5.31;100.00;95849.00;2249967;55;26625;-55
2021/10/11 07:36:32;;;;;;;7.63;6.17;;;4.40;99.90;;;6.06;100.00;95853.00;2250319;55;26112;-55
2021/10/11 07:39:19;;;;;;;7.20;6.17;;;4.90;99.90;;;6.69;100.00;95849.00;2476476;55;26191;-55
2021/10/11 07:42:05;;;;;;;8.03;6.20;;;5.20;99.90;;;6.86;100.00;95853.00;2477369;55;26990;-55
2021/10/11 07:44:52;;;;;;;6.70;6.00;;;5.70;99.90;;;7.48;100.00;95858.00;2251540;55;26223;-60
2021/10/11 07:47:38;;;;;;;9.23;6.40;;;6.10;99.90;;;8.51;100.00;95846.00;2251192;55;26126;-55
2021/10/11 07:50:25;;;;;;;8.73;6.40;;;6.30;99.90;;;8.77;100.00;95839.00;2249722;55;26222;-56
2021/10/11 07:53:13;;;;;;;6.60;5.63;;;6.70;99.90;;;9.09;100.00;95832.00;2251884;55;26655;-55
2021/10/11 07:55:59;;;;;;;10.10;5.80;;;6.20;99.90;;;8.26;100.00;95824.00;2476067;55;26111;-56
2021/10/11 07:58:46;;;;;;;6.37;5.30;;;5.80;99.90;;;7.20;100.00;95828.00;2254827;55;26616;-55
2021/10/11 08:01:34;;;;;;;4.80;4.30;;;6.00;99.90;;;7.89;100.00;95829.00;2481834;55;26118;-57
2021/10/11 08:04:20;;;;;;;6.25;4.87;;;7.10;99.90;;;9.62;100.00;95833.00;2253993;55;26521;-56
2021/10/11 08:07:07;;;;;;;6.78;4.80;;;8.10;99.90;;;11.10;100.00;95826.00;2480335;55;26631;-55
2021/10/11 08:09:53;;;;;;;11.27;7.18;;;9.00;99.90;;;12.16;100.00;95827.00;2253654;55;26637;-57
2021/10/11 08:12:40;;;;;;;18.62;11.52;;;10.00;99.90;;;13.59;100.00;95822.00;2450119;55;26146;-56
2021/10/11 08:15:27;;;;;;;8.07;4.18;;;11.00;99.90;;;15.15;100.00;95813.00;2229727;56;26164;-56
2021/10/11 08:18:13;;;;;;;7.18;5.10;;;12.60;99.90;;;17.13;100.00;95817.00;2449294;55;26701;-56
2021/10/11 08:21:00;;;;;;;5.50;4.03;;;14.10;99.90;;;18.96;92.97;95811.00;2200172;56;26568;-56
2021/10/11 08:23:49;;;;;;;9.98;6.72;;;15.00;99.90;;;18.97;82.56;95812.00;2199313;57;26644;-56
2021/10/11 08:26:36;;;;;;;3.70;3.20;;;15.20;99.90;;;19.65;79.47;95813.00;2404533;57;26160;-56
2021/10/11 08:29:23;;;;;;;3.50;3.10;;;15.60;99.90;;;19.88;73.07;95811.00;2191135;58;26135;-56
2021/10/11 08:32:09;;;;;;;4.57;2.90;;;15.20;99.90;;;19.95;65.53;95811.00;2404696;57;26717;-57
2021/10/11 08:34:56;;;;;;;4.45;2.92;;;15.70;99.90;;;20.76;65.42;95798.00;2191248;58;26121;-56
2021/10/11 08:37:42;;;;;;;15.15;12.75;;;16.10;99.90;;;21.16;60.26;95799.00;2404903;57;26173;-57
2021/10/11 08:40:29;;;;;;;4.22;3.83;;;16.60;99.90;;;22.56;58.80;95799.00;2190767;58;26586;-56
2021/10/11 08:43:15;;;;;;;4.12;3.70;;;18.10;99.90;;;21.86;54.26;95798.00;2404780;57;26734;-57
2021/10/11 08:49:01;;;;;;;3.90;3.30;;;17.70;99.90;;;22.48;54.30;95780.00;2252462;55;33646;-59
2021/10/11 08:51:47;;;;;;;4.80;3.15;;;18.00;99.90;;;22.61;53.29;95782.00;2256341;56;26611;-57
2021/10/11 08:54:35;;;;;;;5.50;2.95;;;18.00;99.90;;;22.64;55.66;95775.00;2460170;55;25150;-57
2021/10/11 08:57:24;;;;;;;3.15;2.95;;;18.50;99.90;;;23.77;54.18;95770.00;2236727;55;25072;-56
2021/10/11 09:00:16;;;;;;;4.28;3.33;;;19.40;99.90;;;24.89;54.26;95773.00;2459771;55;26208;-56
2021/10/11 09:03:04;;;;;;;3.45;3.15;;;20.30;99.90;;;25.53;46.66;95769.00;2236923;55;25088;-56
2021/10/11 09:05:53;;;;;;;3.60;3.30;;;19.80;99.90;;;24.90;48.06;95766.00;2460454;55;25123;-56
2021/10/11 09:08:40;;;;;;;3.50;3.05;;;19.80;99.90;;;25.12;47.70;95758.00;2237348;55;25159;-56
2021/10/11 09:14:28;;;;;;;4.18;3.10;;;19.60;99.90;;;24.27;49.17;95772.00;2251930;55;33472;-59
2021/10/11 09:17:28;;;;;;;3.50;3.20;;;19.90;99.90;;;25.15;44.89;95777.00;2252780;56;25143;-57
2021/10/11 09:20:18;;;;;;;3.33;2.92;;;20.00;99.90;;;25.76;44.97;95778.00;2253515;56;25170;-57
2021/10/11 09:23:04;;;;;;;3.05;2.75;;;21.10;99.90;;;27.09;42.74;95776.00;2466820;55;25085;-58
2021/10/11 09:25:51;;;;;;;3.67;3.37;;;20.70;99.90;;;25.62;45.72;95778.00;2252766;56;25127;-57
2021/10/11 09:28:50;;;;;;;3.33;3.03;;;21.00;99.90;;;26.15;37.46;95780.00;2253230;55;25104;-58
2021/10/11 09:34:38;;;;;;;4.70;3.33;;;19.90;99.90;;;25.83;41.37;95760.00;2236905;56;33728;-56
2021/10/11 09:37:35;;;;;;;3.62;3.33;;;19.90;99.90;;;24.52;39.47;95762.00;2229877;56;25289;-56
2021/10/11 09:43:23;;;;;;;3.80;3.50;;;22.20;99.90;;;27.70;41.67;95771.00;2217146;57;32459;-58
2021/10/11 09:46:13;;;;;;;4.35;3.33;;;22.90;99.90;;;28.57;40.86;95779.00;2197404;57;25104;-58
2021/10/11 09:49:00;;;;;;;4.90;4.07;;;23.10;99.90;;;28.50;33.99;95780.00;2239959;56;25178;-55
2021/10/11 09:51:47;;;;;;;4.25;3.90;;;22.30;99.90;;;27.59;36.07;95786.00;2239882;57;25673;-56
2021/10/11 09:54:33;;;;;;;5.15;3.90;;;22.60;99.90;;;28.13;37.92;95803.00;2463490;56;25140;-56
2021/10/11 09:57:22;;;;;;;4.97;4.28;;;23.10;99.90;;;28.65;36.92;95803.00;2239391;56;25708;-56
2021/10/11 10:00:13;;;;;;;5.07;3.75;;;23.10;99.90;;;28.25;38.15;95790.00;2463152;56;25119;-55
2021/10/11 10:02:59;;;;;;;4.20;3.80;;;23.60;99.90;;;29.33;33.81;95787.00;2222121;57;25141;-55
2021/10/11 10:05:48;;;;;;;4.53;4.12;;;23.30;99.90;;;27.86;33.18;95785.00;2402607;57;25088;-55
2021/10/11 10:08:37;;;;;;;5.00;4.50;;;22.40;99.90;;;27.58;33.34;95779.00;2190085;57;25150;-55
2021/10/11 10:14:27;;;;;;;5.10;4.60;;;23.10;99.90;;;29.15;35.74;95778.00;2242220;56;32455;-56
2021/10/11 10:17:13;;;;;;;7.25;4.50;;;23.90;99.90;;;29.44;36.17;95776.00;2216843;56;25133;-57
2021/10/11 10:20:11;;;;;;;7.28;4.80;;;23.60;99.90;;;29.32;36.38;95773.00;2429530;56;25147;-57
2021/10/11 10:22:58;;;;;;;6.60;5.07;;;24.20;99.90;;;29.72;35.26;95777.00;2436508;55;26943;-58
2021/10/11 10:25:46;;;;;;;6.55;5.05;;;23.90;99.90;;;29.37;35.99;95769.00;2211052;57;25143;-58
2021/10/11 10:28:44;;;;;;;6.20;4.60;;;24.80;99.90;;;31.11;32.34;95772.00;2211486;57;25165;-58
2021/10/11 10:31:35;;;;;;;5.75;4.93;;;24.80;99.90;;;31.17;31.68;95772.00;2211651;57;25621;-58
2021/10/11 10:34:23;;;;;;;7.35;4.80;;;25.00;99.90;;;31.13;33.24;95773.00;2460075;56;25223;-57
2021/10/11 10:37:13;;;;;;;4.95;4.45;;;24.90;99.90;;;30.70;32.35;95771.00;2236550;57;25188;-58
2021/10/11 10:40:09;;;;;;;6.28;4.87;;;24.50;99.90;;;30.04;32.93;95755.00;2459589;56;25081;-59
2021/10/11 10:43:07;;;;;;;4.75;4.25;;;24.30;99.90;;;30.24;33.61;95753.00;2459961;56;25137;-57
2021/10/11 10:45:53;;;;;;;6.82;4.50;;;24.30;99.90;;;29.94;32.53;95753.00;2236657;56;25632;-57
2021/10/11 10:51:44;;;;;;;25.75;13.70;;;23.60;99.90;;;27.03;33.87;95739.00;2289306;53;33599;-57
2021/10/11 10:54:38;;;;;;;14.63;8.60;;;21.00;99.90;;;23.89;36.97;95741.00;2313270;55;26104;-56
2021/10/11 10:57:29;;;;;;;38.38;16.58;;;20.10;99.90;;;24.03;41.54;95739.00;2312943;55;26120;-57
2021/10/11 11:03:17;;;;;;;9.82;7.75;;;21.60;99.90;;;26.00;34.41;95734.00;2244496;55;33887;-56
2021/10/11 11:06:06;;;;;;;6.68;5.97;;;19.90;99.90;;;24.22;38.05;95732.00;2218766;58;26109;-56
2021/10/11 11:08:58;;;;;;;5.10;4.45;;;19.60;99.90;;;23.70;38.00;95734.00;2213812;56;26198;-57
2021/10/11 11:14:46;;;;;;;5.95;4.80;;;17.80;99.90;;;19.95;44.79;95720.00;2231991;56;33321;-56
2021/10/11 11:17:35;;;;;;;6.40;5.00;;;16.60;99.90;;;18.56;49.17;95726.00;2189210;58;26179;-56
2021/10/11 11:20:24;;;;;;;7.15;5.10;;;15.70;99.90;;;17.50;56.02;95725.00;2427787;57;26256;-57
2021/10/11 11:23:13;;;;;;;7.60;5.72;;;15.30;99.90;;;16.65;68.91;95723.00;2211000;57;26117;-56
2021/10/11 11:26:04;;;;;;;5.37;4.78;;;14.70;99.90;;;15.70;76.48;95716.00;2428543;57;26625;-56
2021/10/11 11:28:51;;;;;;;6.93;5.32;;;14.50;99.90;;;15.72;82.29;95709.00;2429079;57;26575;-57
2021/10/11 11:31:37;;;;;;;8.35;5.15;;;14.50;99.90;;;16.00;81.89;95701.00;2427978;57;26632;-57
2021/10/11 11:34:23;;;;;;;7.25;4.87;;;14.70;99.90;;;16.48;83.42;95700.00;2211056;57;26692;-57
2021/10/11 11:37:13;;;;;;;6.22;4.53;;;15.50;99.90;;;18.37;77.97;95705.00;2449539;54;26582;-56
2021/10/11 11:40:07;;;;;;;9.75;4.87;;;16.30;99.90;;;18.90;61.36;95702.00;2234725;57;26672;-56
2021/10/11 11:42:54;;;;;;;6.10;4.12;;;16.90;99.90;;;20.11;59.17;95685.00;2234133;57;26107;-56
2021/10/11 11:45:42;;;;;;;6.22;4.47;;;17.40;99.90;;;19.69;50.77;95692.00;2204808;57;26739;-56
2021/10/11 11:48:31;;;;;;;5.97;4.30;;;17.00;99.90;;;19.41;51.67;95684.00;2425209;57;26134;-56
2021/10/11 11:51:19;;;;;;;4.62;3.83;;;17.30;99.90;;;19.98;49.77;95683.00;2208031;57;26166;-56
2021/10/11 11:54:16;;;;;;;5.25;3.60;;;17.50;99.90;;;19.84;49.37;95686.00;2196304;57;26694;-56
2021/10/11 11:57:02;;;;;;;8.48;4.47;;;18.20;99.90;;;21.09;46.00;95678.00;2425660;56;26163;-55
2021/10/11 11:59:50;;;;;;;5.65;4.22;;;17.80;99.90;;;19.64;48.85;95675.00;2216456;56;26632;-56
2021/10/11 12:02:39;;;;;;;4.65;3.80;;;17.90;99.90;;;20.69;48.64;95676.00;2441351;55;26223;-57
2021/10/11 12:05:26;;;;;;;6.43;3.50;;;18.60;99.90;;;20.86;46.93;95678.00;2237983;56;26139;-56
2021/10/11 12:08:14;;;;;;;4.65;3.47;;;18.00;99.90;;;19.61;48.98;95668.00;2237988;56;26211;-55
2021/10/11 12:11:04;;;;;;;5.43;3.87;;;17.50;99.90;;;18.74;46.95;95679.00;2460479;55;26095;-55
2021/10/11 12:13:57;;;;;;;9.02;5.75;;;16.60;99.90;;;17.88;48.14;95680.00;2460692;55;26115;-57
2021/10/11 12:16:43;;;;;;;4.30;3.28;;;15.90;99.90;;;16.62;51.46;95680.00;2236969;56;26669;-55
2021/10/11 12:19:31;;;;;;;11.80;5.62;;;15.80;99.90;;;16.75;50.44;95688.00;2236742;56;26639;-56
2021/10/11 12:25:33;;;;;;;5.55;3.80;;;15.80;99.90;;;17.66;56.21;95676.00;2257803;56;33658;-56